createdAt,value
2019-02-02T00:00:43.694Z,277.77
2019-02-02T00:03:12.547Z,273.73
2019-02-02T00:05:40.913Z,275.77
2019-02-02T00:08:09.238Z,254.73
2019-02-02T00:10:37.515Z,260.80
2019-02-02T00:13:05.839Z,276.00
2019-02-02T00:15:34.395Z,255.50
2019-02-02T00:18:03.082Z,253.43
2019-02-02T00:20:31.373Z,249.40
2019-02-02T00:23:00.043Z,288.03
2019-02-02T00:25:28.586Z,278.53
2019-02-02T00:27:57.213Z,269.27
2019-02-02T00:30:25.802Z,299.73
2019-02-02T00:32:54.386Z,296.80
2019-02-02T00:35:22.695Z,265.90
2019-02-02T00:37:51.344Z,271.37
2019-02-02T00:40:20.237Z,269.03
2019-02-02T00:42:48.821Z,277.33
2019-02-02T00:45:18.647Z,269.23
2019-02-02T00:47:46.963Z,282.23
2019-02-02T00:50:16.004Z,307.53
2019-02-02T00:52:44.597Z,296.00
2019-02-02T00:55:14.523Z,304.67
2019-02-02T00:57:53.093Z,281.57
2019-02-02T01:00:23.503Z,283.37
2019-02-02T01:02:52.126Z,278.67
2019-02-02T01:05:22.158Z,284.07
2019-02-02T01:07:51.499Z,257.87
2019-02-02T01:10:29.356Z,273.70
2019-02-02T01:12:57.672Z,272.00
2019-02-02T01:15:26.414Z,255.93
2019-02-02T01:17:54.870Z,261.53
2019-02-02T01:20:23.479Z,277.30
2019-02-02T01:22:51.766Z,277.00
2019-02-02T01:25:20.434Z,311.13
2019-02-02T01:27:49.023Z,319.50
2019-02-02T01:30:19.821Z,283.97
2019-02-02T01:32:48.377Z,276.10
2019-02-02T01:35:18.018Z,284.37
2019-02-02T01:37:46.738Z,276.43
2019-02-02T01:40:21.055Z,283.17
2019-02-02T01:42:49.639Z,265.00
2019-02-02T01:45:23.252Z,249.80
2019-02-02T01:47:51.617Z,247.17
2019-02-02T01:50:22.081Z,240.57
2019-02-02T01:52:50.372Z,255.00
2019-02-02T01:55:18.769Z,246.97
2019-02-02T01:57:47.396Z,243.93
2019-02-02T02:00:30.833Z,242.10
2019-02-02T02:02:59.102Z,242.30
2019-02-02T02:05:27.431Z,229.40
2019-02-02T02:07:55.717Z,221.03
2019-02-02T02:10:24.354Z,178.77
2019-02-02T02:12:52.911Z,210.43
2019-02-02T02:15:21.198Z,201.97
2019-02-02T02:17:49.485Z,189.23
2019-02-02T02:20:19.236Z,194.03
2019-02-02T02:22:48.894Z,191.57
2019-02-02T02:25:18.976Z,196.63
2019-02-02T02:27:47.306Z,170.47
2019-02-02T02:30:20.512Z,164.30
2019-02-02T02:32:48.826Z,188.13
2019-02-02T02:35:17.494Z,181.10
2019-02-02T02:37:46.165Z,185.93
2019-02-02T02:40:17.166Z,186.57
2019-02-02T02:42:45.495Z,166.60
2019-02-02T02:45:13.967Z,181.50
2019-02-02T02:47:42.531Z,159.07
2019-02-02T02:50:14.418Z,157.80
2019-02-02T02:52:42.757Z,158.80
2019-02-02T02:55:14.510Z,165.50
2019-02-02T02:57:42.854Z,170.60
2019-02-02T03:00:17.598Z,174.90
2019-02-02T03:02:45.898Z,168.27
2019-02-02T03:05:15.275Z,173.43
2019-02-02T03:07:43.916Z,164.33
2019-02-02T03:10:14.995Z,162.23
2019-02-02T03:12:43.627Z,160.67
2019-02-02T03:15:14.645Z,154.93
2019-02-02T03:17:43.253Z,158.87
2019-02-02T03:20:13.586Z,154.93
2019-02-02T03:22:41.894Z,147.60
2019-02-02T03:25:15.185Z,126.67
2019-02-02T03:27:43.506Z,138.83
2019-02-02T03:30:14.054Z,141.50
2019-02-02T03:32:42.408Z,143.47
2019-02-02T03:35:12.352Z,140.00
2019-02-02T03:37:40.644Z,140.07
2019-02-02T03:40:12.200Z,134.77
2019-02-02T03:42:40.542Z,134.37
2019-02-02T03:45:11.818Z,133.67
2019-02-02T03:47:40.407Z,134.40
2019-02-02T03:50:10.659Z,125.87
2019-02-02T03:52:38.958Z,128.00
2019-02-02T03:55:12.780Z,125.13
2019-02-02T03:57:41.383Z,128.73
2019-02-02T04:00:15.267Z,126.20
2019-02-02T04:02:43.577Z,121.83
2019-02-02T04:05:20.948Z,124.33
2019-02-02T04:07:49.547Z,121.17
2019-02-02T04:10:17.833Z,122.10
2019-02-02T04:12:46.410Z,121.60
2019-02-02T04:15:16.468Z,123.43
2019-02-02T04:17:44.785Z,110.70
2019-02-02T04:20:17.846Z,119.33
2019-02-02T04:22:46.155Z,113.90
2019-02-02T04:25:14.611Z,114.00
2019-02-02T04:27:43.231Z,114.10
2019-02-02T04:30:16.982Z,109.60
2019-02-02T04:32:45.262Z,113.50
2019-02-02T04:35:13.895Z,106.83
2019-02-02T04:37:42.187Z,100.27
2019-02-02T04:40:12.642Z,110.37
2019-02-02T04:42:40.941Z,120.90
2019-02-02T04:45:11.924Z,123.00
2019-02-02T04:47:40.302Z,120.83
2019-02-02T04:50:14.101Z,120.23
2019-02-02T04:52:42.382Z,116.40
2019-02-02T04:55:12.605Z,115.80
2019-02-02T04:57:41.190Z,119.13
2019-02-02T05:00:13.091Z,116.13
2019-02-02T05:02:41.463Z,110.47
2019-02-02T05:05:12.610Z,112.67
2019-02-02T05:07:40.915Z,114.27
2019-02-02T05:10:12.607Z,108.23
2019-02-02T05:12:41.298Z,110.70
2019-02-02T05:15:09.977Z,89.50
2019-02-02T05:17:38.554Z,92.93
2019-02-02T05:20:10.204Z,90.50
2019-02-02T05:22:38.797Z,96.30
2019-02-02T05:25:08.410Z,93.23
2019-02-02T05:27:36.716Z,102.73
2019-02-02T05:30:14.395Z,104.83
2019-02-02T05:32:42.703Z,102.63
2019-02-02T05:35:11.055Z,94.10
2019-02-02T05:37:39.614Z,98.77
2019-02-02T05:40:14.347Z,98.50
2019-02-02T05:42:42.931Z,94.60
2019-02-02T05:45:13.607Z,102.40
2019-02-02T05:47:42.249Z,97.70
2019-02-02T05:50:13.418Z,96.93
2019-02-02T05:52:41.971Z,97.23
2019-02-02T05:55:14.861Z,91.50
2019-02-02T05:57:43.165Z,92.00
2019-02-02T06:00:16.642Z,94.77
2019-02-02T06:02:45.219Z,92.10
2019-02-02T06:05:13.514Z,93.17
2019-02-02T06:07:42.075Z,90.63
2019-02-02T06:10:13.683Z,88.17
2019-02-02T06:12:42.315Z,87.00
2019-02-02T06:15:10.912Z,86.03
2019-02-02T06:17:39.215Z,86.30
2019-02-02T06:20:10.785Z,84.77
2019-02-02T06:22:39.317Z,81.10
2019-02-02T06:25:10.266Z,83.27
2019-02-02T06:27:38.545Z,86.57
2019-02-02T06:30:22.477Z,83.43
2019-02-02T06:32:51.063Z,81.30
2019-02-02T06:35:19.761Z,81.43
2019-02-02T06:37:48.047Z,81.23
2019-02-02T06:40:16.973Z,78.57
2019-02-02T06:42:45.268Z,76.87
2019-02-02T06:45:25.550Z,74.73
2019-02-02T06:47:54.234Z,75.60
2019-02-02T06:50:22.827Z,77.40
2019-02-02T06:52:51.146Z,75.17
2019-02-02T06:55:19.438Z,76.00
2019-02-02T06:57:48.051Z,73.50
2019-02-02T07:00:26.498Z,76.63
2019-02-02T07:02:55.047Z,73.70
2019-02-02T07:05:23.631Z,71.73
2019-02-02T07:07:51.930Z,73.23
2019-02-02T07:10:25.201Z,72.17
2019-02-02T07:12:53.900Z,67.97
2019-02-02T07:15:24.998Z,64.83
2019-02-02T07:17:53.299Z,67.73
2019-02-02T07:20:21.599Z,67.23
2019-02-02T07:22:49.894Z,64.80
2019-02-02T07:25:18.761Z,64.67
2019-02-02T07:27:47.447Z,66.10
2019-02-02T07:30:28.852Z,65.53
2019-02-02T07:32:51.680Z,65.10
2019-02-02T07:35:20.264Z,63.07
2019-02-02T07:37:48.550Z,59.10
2019-02-02T07:40:18.566Z,62.60
2019-02-02T07:42:47.246Z,59.37
2019-02-02T07:45:17.973Z,63.70
2019-02-02T07:47:46.276Z,62.27
2019-02-02T07:50:16.052Z,66.37
2019-02-02T07:52:44.655Z,59.90
2019-02-02T07:55:18.604Z,57.97
2019-02-02T07:57:46.909Z,59.57
2019-02-02T08:00:21.460Z,58.40
2019-02-02T08:02:50.044Z,64.27
2019-02-02T08:05:18.350Z,61.50
2019-02-02T08:07:47.026Z,59.50
2019-02-02T08:10:15.382Z,56.63
2019-02-02T08:12:43.703Z,58.77
2019-02-02T08:15:15.418Z,55.70
2019-02-02T08:17:44.026Z,67.87
2019-02-02T08:20:14.746Z,91.97
2019-02-02T08:22:43.125Z,165.37
2019-02-02T08:25:31.189Z,151.40
2019-02-02T08:27:59.762Z,146.40
2019-02-02T08:30:30.847Z,141.30
2019-02-02T08:32:59.494Z,138.17
2019-02-02T08:35:28.072Z,134.03
2019-02-02T08:37:56.667Z,124.47
2019-02-02T08:40:25.245Z,165.70
2019-02-02T08:42:53.853Z,136.67
2019-02-02T08:45:22.624Z,125.90
2019-02-02T08:47:51.298Z,153.67
2019-02-02T08:50:25.621Z,131.37
2019-02-02T08:52:53.917Z,124.57
2019-02-02T08:55:22.253Z,119.83
2019-02-02T08:57:50.970Z,126.67
2019-02-02T09:00:20.427Z,116.17
2019-02-02T09:02:48.706Z,113.23
2019-02-02T09:05:21.723Z,149.40
2019-02-02T09:07:50.046Z,156.47
2019-02-02T09:10:23.983Z,137.10
2019-02-02T09:12:52.708Z,135.30
2019-02-02T09:15:22.000Z,137.23
2019-02-02T09:17:50.304Z,124.43
2019-02-02T09:20:18.584Z,119.30
2019-02-02T09:22:47.442Z,125.90
2019-02-02T09:25:17.710Z,182.50
2019-02-02T09:27:46.202Z,145.80
2019-02-02T09:30:20.786Z,141.67
2019-02-02T09:32:49.563Z,138.23
2019-02-02T09:35:17.857Z,131.70
2019-02-02T09:37:46.564Z,129.60
2019-02-02T09:40:17.888Z,123.30
2019-02-02T09:42:46.630Z,116.73
2019-02-02T09:45:20.466Z,122.30
2019-02-02T09:47:49.018Z,123.40
2019-02-02T09:50:22.546Z,112.50
2019-02-02T09:52:51.438Z,104.67
2019-02-02T09:55:22.495Z,100.40
2019-02-02T09:57:55.181Z,103.30
2019-02-02T10:00:24.462Z,97.33
2019-02-02T10:02:53.051Z,94.80
2019-02-02T10:05:21.631Z,97.33
2019-02-02T10:07:49.954Z,97.70
2019-02-02T10:10:20.658Z,105.60
2019-02-02T10:12:49.223Z,99.50
2019-02-02T10:15:18.501Z,102.03
2019-02-02T10:17:49.608Z,118.83
2019-02-02T10:20:25.771Z,138.87
2019-02-02T10:22:54.730Z,140.33
2019-02-02T10:25:25.434Z,134.50
2019-02-02T10:27:56.196Z,120.77
2019-02-02T10:30:33.900Z,125.50
2019-02-02T10:33:02.312Z,119.90
2019-02-02T10:35:30.645Z,114.57
2019-02-02T10:37:59.252Z,119.73
2019-02-02T10:40:29.945Z,115.33
2019-02-02T10:42:57.628Z,133.90
2019-02-02T10:45:26.211Z,124.10
2019-02-02T10:47:54.516Z,114.37
2019-02-02T10:50:24.355Z,113.70
2019-02-02T10:52:52.982Z,106.63
2019-02-02T10:55:21.299Z,99.10
2019-02-02T10:57:49.597Z,101.13
2019-02-02T11:00:23.858Z,94.97
2019-02-02T11:02:52.184Z,92.93
2019-02-02T11:05:20.826Z,89.23
2019-02-02T11:07:49.538Z,98.53
2019-02-02T11:10:20.450Z,101.60
2019-02-02T11:12:48.840Z,104.93
2019-02-02T11:15:19.749Z,94.80
2019-02-02T11:17:48.121Z,95.40
2019-02-02T11:20:22.093Z,89.27
2019-02-02T11:22:50.492Z,89.83
2019-02-02T11:25:18.881Z,100.00
2019-02-02T11:27:47.661Z,105.87
2019-02-02T11:30:20.228Z,108.77
2019-02-02T11:32:48.602Z,103.67
2019-02-02T11:35:19.801Z,100.80
2019-02-02T11:37:48.109Z,92.13
2019-02-02T11:40:19.449Z,86.73
2019-02-02T11:42:47.777Z,82.10
2019-02-02T11:45:16.115Z,86.97
2019-02-02T11:47:44.428Z,83.17
2019-02-02T11:50:17.113Z,79.20
2019-02-02T11:52:45.722Z,75.37
2019-02-02T11:55:17.579Z,79.00
2019-02-02T11:57:45.870Z,70.77
2019-02-02T12:00:20.435Z,69.83
2019-02-02T12:02:49.677Z,69.53
2019-02-02T12:05:18.384Z,68.60
2019-02-02T12:07:46.691Z,66.70
2019-02-02T12:10:25.971Z,67.97
2019-02-02T12:12:54.280Z,67.53
2019-02-02T12:15:22.851Z,57.57
2019-02-02T12:17:51.225Z,63.00
2019-02-02T12:20:21.719Z,63.90
2019-02-02T12:22:50.034Z,57.47
2019-02-02T12:25:18.618Z,55.33
2019-02-02T12:27:47.310Z,53.33
2019-02-02T12:30:21.554Z,86.63
2019-02-02T12:32:50.205Z,86.80
2019-02-02T12:35:20.876Z,99.93
2019-02-02T12:37:49.171Z,101.97
2019-02-02T12:40:22.296Z,88.53
2019-02-02T12:42:50.887Z,85.67
2019-02-02T12:45:22.646Z,78.83
2019-02-02T12:47:50.932Z,73.70
2019-02-02T12:50:19.215Z,71.87
2019-02-02T12:52:47.879Z,62.73
2019-02-02T12:55:16.414Z,59.77
2019-02-02T12:57:44.711Z,58.77
2019-02-02T13:00:18.595Z,60.37
2019-02-02T13:02:46.905Z,74.20
2019-02-02T13:05:19.789Z,71.93
2019-02-02T13:07:48.394Z,63.53
2019-02-02T13:10:25.259Z,64.03
2019-02-02T13:12:53.877Z,84.70
2019-02-02T13:15:22.546Z,71.03
2019-02-02T13:17:51.241Z,72.00
2019-02-02T13:20:19.919Z,83.17
2019-02-02T13:22:48.906Z,75.23
2019-02-02T13:25:19.283Z,75.63
2019-02-02T13:27:47.916Z,71.97
2019-02-02T13:30:19.067Z,73.67
2019-02-02T13:32:49.973Z,69.50
2019-02-02T13:35:18.795Z,66.93
2019-02-02T13:37:47.090Z,62.33
2019-02-02T13:40:17.950Z,59.10
2019-02-02T13:42:46.596Z,55.03
2019-02-02T13:45:16.692Z,58.70
2019-02-02T13:47:45.292Z,78.93
2019-02-02T13:50:16.082Z,73.80
2019-02-02T13:52:44.916Z,69.67
2019-02-02T13:55:13.708Z,69.57
2019-02-02T13:57:42.241Z,67.33
2019-02-02T14:00:20.511Z,61.70
2019-02-02T14:02:48.802Z,62.93
2019-02-02T14:05:18.380Z,63.63
2019-02-02T14:07:48.232Z,61.37
2019-02-02T14:10:21.500Z,61.37
2019-02-02T14:12:50.537Z,59.07
2019-02-02T14:15:19.101Z,60.93
2019-02-02T14:17:47.592Z,73.53
2019-02-02T14:20:16.459Z,83.50
2019-02-02T14:22:45.379Z,86.07
2019-02-02T14:25:15.322Z,88.60
2019-02-02T14:27:44.138Z,79.80
2019-02-02T14:30:15.991Z,77.37
2019-02-02T14:32:45.838Z,99.00
2019-02-02T14:35:17.262Z,77.97
2019-02-02T14:37:45.745Z,92.03
2019-02-02T14:40:16.396Z,108.10
2019-02-02T14:42:44.823Z,113.50
2019-02-02T14:45:15.664Z,129.37
2019-02-02T14:47:44.207Z,113.43
2019-02-02T14:50:19.028Z,112.70
2019-02-02T14:52:47.436Z,102.63
2019-02-02T14:55:24.375Z,93.53
2019-02-02T14:57:53.269Z,96.40
2019-02-02T15:00:23.992Z,90.43
2019-02-02T15:02:52.622Z,88.83
2019-02-02T15:05:21.871Z,101.90
2019-02-02T15:07:50.230Z,101.80
2019-02-02T15:10:19.402Z,97.47
2019-02-02T15:12:48.819Z,101.73
2019-02-02T15:15:17.539Z,119.37
2019-02-02T15:17:45.910Z,123.23
2019-02-02T15:20:22.371Z,121.67
2019-02-02T15:22:50.319Z,112.67
2019-02-02T15:25:19.056Z,113.57
2019-02-02T15:27:47.354Z,106.63
2019-02-02T15:30:21.830Z,103.40
2019-02-02T15:32:50.573Z,97.43
2019-02-02T15:35:18.942Z,99.53
2019-02-02T15:37:47.395Z,99.47
2019-02-02T15:40:17.825Z,92.27
2019-02-02T15:42:46.409Z,111.20
2019-02-02T15:45:16.946Z,109.43
2019-02-02T15:47:45.291Z,106.50
2019-02-02T15:50:15.385Z,111.23
2019-02-02T15:52:44.008Z,109.50
2019-02-02T15:55:17.227Z,104.60
2019-02-02T15:57:45.557Z,96.83
2019-02-02T16:00:20.009Z,101.73
2019-02-02T16:02:48.594Z,92.20
2019-02-02T16:05:19.036Z,95.47
2019-02-02T16:07:48.004Z,93.03
2019-02-02T16:10:18.968Z,94.17
2019-02-02T16:12:47.858Z,98.93
2019-02-02T16:15:16.229Z,111.57
2019-02-02T16:17:44.631Z,116.93
2019-02-02T16:20:16.136Z,142.10
2019-02-02T16:22:44.876Z,126.83
2019-02-02T16:25:14.169Z,124.03
2019-02-02T16:27:42.467Z,112.43
2019-02-02T16:30:22.478Z,109.10
2019-02-02T16:32:51.078Z,120.47
2019-02-02T16:35:19.780Z,126.40
2019-02-02T16:37:48.174Z,130.73
2019-02-02T16:40:21.208Z,121.03
2019-02-02T16:42:49.578Z,121.33
2019-02-02T16:45:26.473Z,116.63
2019-02-02T16:47:54.791Z,108.73
2019-02-02T16:50:23.734Z,106.93
2019-02-02T16:52:52.413Z,100.53
2019-02-02T16:55:20.719Z,105.87
2019-02-02T16:57:49.213Z,99.40
2019-02-02T17:00:27.179Z,101.37
2019-02-02T17:02:55.611Z,97.60
2019-02-02T17:05:24.269Z,100.13
2019-02-02T17:07:54.443Z,121.97
2019-02-02T17:10:33.940Z,120.53
2019-02-02T17:13:02.335Z,124.13
2019-02-02T17:15:30.804Z,119.13
2019-02-02T17:17:59.239Z,119.83
2019-02-02T17:20:30.716Z,121.30
2019-02-02T17:22:59.119Z,135.20
2019-02-02T17:25:27.497Z,133.50
2019-02-02T17:27:56.148Z,135.10
2019-02-02T17:30:25.619Z,133.23
2019-02-02T17:32:56.788Z,138.90
2019-02-02T17:35:25.108Z,170.60
2019-02-02T17:37:53.428Z,134.97
2019-02-02T17:40:29.718Z,137.80
2019-02-02T17:42:58.062Z,122.53
2019-02-02T17:45:26.743Z,114.37
2019-02-02T17:47:55.108Z,109.53
2019-02-02T17:50:25.446Z,119.77
2019-02-02T17:52:54.083Z,117.00
2019-02-02T17:55:22.382Z,119.93
2019-02-02T17:57:51.198Z,111.10
2019-02-02T18:00:23.655Z,104.03
2019-02-02T18:02:52.397Z,100.07
2019-02-02T18:05:20.734Z,96.93
2019-02-02T18:07:49.349Z,91.53
2019-02-02T18:10:18.244Z,95.30
2019-02-02T18:12:46.646Z,86.87
2019-02-02T18:15:16.430Z,86.77
2019-02-02T18:17:45.127Z,86.43
2019-02-02T18:20:17.011Z,83.47
2019-02-02T18:22:45.382Z,83.20
2019-02-02T18:25:17.956Z,78.80
2019-02-02T18:27:46.252Z,77.27
2019-02-02T18:30:26.164Z,94.60
2019-02-02T18:32:54.981Z,108.67
2019-02-02T18:35:24.362Z,115.37
2019-02-02T18:37:53.197Z,115.37
2019-02-02T18:40:26.041Z,109.73
2019-02-02T18:42:54.839Z,107.77
2019-02-02T18:45:29.127Z,101.27
2019-02-02T18:47:57.446Z,99.53
2019-02-02T18:50:26.136Z,96.23
2019-02-02T18:52:56.210Z,136.43
2019-02-02T18:55:43.710Z,166.17
2019-02-02T18:58:12.458Z,142.63
2019-02-02T19:00:40.970Z,121.43
2019-02-02T19:03:09.455Z,121.97
2019-02-02T19:05:37.963Z,115.33
2019-02-02T19:08:06.798Z,111.40
2019-02-02T19:10:40.983Z,107.80
2019-02-02T19:13:09.709Z,95.70
2019-02-02T19:15:38.226Z,92.30
2019-02-02T19:18:07.515Z,99.93
2019-02-02T19:20:35.881Z,92.13
2019-02-02T19:23:04.641Z,99.73
2019-02-02T19:25:33.306Z,95.70
2019-02-02T19:28:02.121Z,92.70
2019-02-02T19:30:32.910Z,86.57
2019-02-02T19:33:01.637Z,90.67
2019-02-02T19:35:30.314Z,84.23
2019-02-02T19:37:58.926Z,82.00
2019-02-02T19:40:27.570Z,95.73
2019-02-02T19:42:56.175Z,136.40
2019-02-02T19:45:28.847Z,142.70
2019-02-02T19:47:57.227Z,126.87
2019-02-02T19:50:27.111Z,112.43
2019-02-02T19:52:55.673Z,109.13
2019-02-02T19:55:24.062Z,100.70
2019-02-02T19:57:52.378Z,97.97
2019-02-02T20:00:29.043Z,93.50
2019-02-02T20:02:57.650Z,95.47
2019-02-02T20:05:29.010Z,99.97
2019-02-02T20:07:56.096Z,97.80
2019-02-02T20:10:24.823Z,97.67
2019-02-02T20:12:53.381Z,93.57
2019-02-02T20:15:27.347Z,91.17
2019-02-02T20:17:55.733Z,85.73
2019-02-02T20:20:28.666Z,88.50
2019-02-02T20:22:57.300Z,82.20
2019-02-02T20:25:25.744Z,80.97
2019-02-02T20:27:54.425Z,77.63
2019-02-02T20:30:25.160Z,159.17
2019-02-02T20:32:53.743Z,141.07
2019-02-02T20:35:22.040Z,120.37
2019-02-02T20:37:50.698Z,110.27
2019-02-02T20:40:21.068Z,97.17
2019-02-02T20:42:49.824Z,94.43
2019-02-02T20:45:23.705Z,92.47
2019-02-02T20:47:52.307Z,94.50
2019-02-02T20:50:20.611Z,87.97
2019-02-02T20:52:48.922Z,117.53
2019-02-02T20:55:23.133Z,130.67
2019-02-02T20:57:52.045Z,145.63
2019-02-02T21:00:26.211Z,147.13
2019-02-02T21:02:54.518Z,152.53
2019-02-02T21:05:23.174Z,145.63
2019-02-02T21:07:55.774Z,136.10
2019-02-02T21:10:31.168Z,129.37
2019-02-02T21:13:02.441Z,126.30
2019-02-02T21:15:31.125Z,116.83
2019-02-02T21:17:59.700Z,143.57
2019-02-02T21:20:29.666Z,142.83
2019-02-02T21:22:57.977Z,129.00
2019-02-02T21:25:26.371Z,117.93
2019-02-02T21:27:55.076Z,112.10
2019-02-02T21:30:28.640Z,114.67
2019-02-02T21:32:57.018Z,111.63
2019-02-02T21:35:25.375Z,135.67
2019-02-02T21:37:54.215Z,142.10
2019-02-02T21:40:28.530Z,134.03
2019-02-02T21:42:56.844Z,126.40
2019-02-02T21:45:25.622Z,132.90
2019-02-02T21:47:54.338Z,122.10
2019-02-02T21:50:25.174Z,121.57
2019-02-02T21:52:54.233Z,118.03
2019-02-02T21:55:27.896Z,106.03
2019-02-02T21:57:56.264Z,103.77
2019-02-02T22:00:27.516Z,106.83
2019-02-02T22:02:55.897Z,104.80
2019-02-02T22:05:24.534Z,105.80
2019-02-02T22:07:53.749Z,105.00
2019-02-02T22:10:22.426Z,114.47
2019-02-02T22:12:52.812Z,138.93
2019-02-02T22:15:26.534Z,154.43
2019-02-02T22:17:54.857Z,141.13
2019-02-02T22:20:23.648Z,136.30
2019-02-02T22:22:51.963Z,156.87
2019-02-02T22:25:23.241Z,156.33
2019-02-02T22:27:51.910Z,147.50
2019-02-02T22:30:28.447Z,135.93
2019-02-02T22:32:56.766Z,133.40
2019-02-02T22:35:25.164Z,131.53
2019-02-02T22:37:53.809Z,113.47
2019-02-02T22:40:27.384Z,118.23
2019-02-02T22:42:55.796Z,111.33
2019-02-02T22:45:24.473Z,109.23
2019-02-02T22:47:53.042Z,102.00
2019-02-02T22:50:23.417Z,98.87
2019-02-02T22:52:52.092Z,97.33
2019-02-02T22:55:22.093Z,105.17
2019-02-02T22:57:50.775Z,98.17
2019-02-02T23:00:48.148Z,93.50
2019-02-02T23:03:40.913Z,91.47
2019-02-02T23:06:38.614Z,89.47
2019-02-02T23:09:04.881Z,79.17
2019-02-02T23:12:08.404Z,80.37
2019-02-02T23:14:45.650Z,92.40
2019-02-02T23:17:14.361Z,122.97
2019-02-02T23:19:42.763Z,142.50
2019-02-02T23:22:11.445Z,159.33
2019-02-02T23:24:40.315Z,153.23
2019-02-02T23:27:08.622Z,156.67
2019-02-02T23:29:37.185Z,169.00
2019-02-02T23:32:05.859Z,156.10
2019-02-02T23:34:34.227Z,174.50
2019-02-02T23:37:03.252Z,219.90
2019-02-02T23:39:31.618Z,209.87
2019-02-02T23:42:00.003Z,207.27
2019-02-02T23:44:28.669Z,200.10
2019-02-02T23:46:57.257Z,203.33
2019-02-02T23:49:25.589Z,201.23
2019-02-02T23:51:54.356Z,198.27
2019-02-02T23:54:22.717Z,192.43
2019-02-02T23:56:51.288Z,180.47
2019-02-02T23:59:19.672Z,177.57
